Rib Mountain, Wisconsin
Current Conditions -  °F | °C
As of 6:54 PM on Tuesday 27 Jan 2015 (Local Time) from KAUW Reporting Station
Overcast Overcast  
Wind Chill: 17°   Ceiling: 1800
Heat Index: 24°   Visibility: 10mi
Dew Point: 19°   Wind: 6mph
Humidity: 81%   Direction: 140°SE
Pressure: 30.17"   Gusts: NA
Location:  45.0598°N, 89.4871°W
Report Text: KAUW 280054Z AUTO 14005KT 10SM OVC018 M04/M07 A3017 RMK AO2 SLP239 T10441072
Loading
Personal Weather Stations






























Interactive Weather Map New forecast layout! Learn more

10-Day Weather Forecast

Advertisements
Track Severe Weather on mobile